createdAt,value
2018-07-27T00:01:59.386Z,12.13
2018-07-27T00:04:27.943Z,12.13
2018-07-27T00:06:56.522Z,11.77
2018-07-27T00:09:25.042Z,10.93
2018-07-27T00:11:53.556Z,11.03
2018-07-27T00:14:22.031Z,12.03
2018-07-27T00:16:50.630Z,11.27
2018-07-27T00:19:19.118Z,10.80
2018-07-27T00:21:47.630Z,10.33
2018-07-27T00:24:16.146Z,9.80
2018-07-27T00:26:44.622Z,9.87
2018-07-27T00:29:13.173Z,10.27
2018-07-27T00:31:41.721Z,10.07
2018-07-27T00:34:10.242Z,9.27
2018-07-27T00:36:38.814Z,10.30
2018-07-27T00:39:08.555Z,10.10
2018-07-27T00:41:37.074Z,10.53
2018-07-27T00:44:05.659Z,11.33
2018-07-27T00:46:34.239Z,11.90
2018-07-27T00:49:02.713Z,11.63
2018-07-27T00:51:31.322Z,11.70
2018-07-27T00:53:59.828Z,12.60
2018-07-27T00:56:28.138Z,11.27
2018-07-27T00:58:56.715Z,12.03
2018-07-27T01:01:25.287Z,12.33
2018-07-27T01:03:53.842Z,11.47
2018-07-27T01:06:22.381Z,11.37
2018-07-27T01:08:50.914Z,10.63
2018-07-27T01:11:19.434Z,11.97
2018-07-27T01:13:47.970Z,11.50
2018-07-27T01:16:16.442Z,10.47
2018-07-27T01:18:44.960Z,11.37
2018-07-27T01:21:13.498Z,11.43
2018-07-27T01:23:42.030Z,11.67
2018-07-27T01:26:10.603Z,11.43
2018-07-27T01:28:39.088Z,11.40
2018-07-27T01:31:07.646Z,10.93
2018-07-27T01:33:36.282Z,11.77
2018-07-27T01:36:04.823Z,11.60
2018-07-27T01:38:33.315Z,12.57
2018-07-27T01:41:02.394Z,11.17
2018-07-27T01:43:30.996Z,12.80
2018-07-27T01:45:59.584Z,12.17
2018-07-27T01:48:28.062Z,11.87
2018-07-27T01:50:56.619Z,11.93
2018-07-27T01:53:25.106Z,11.40
2018-07-27T01:55:53.761Z,12.10
2018-07-27T01:58:22.262Z,11.40
2018-07-27T02:00:50.783Z,11.93
2018-07-27T02:03:19.295Z,12.27
2018-07-27T02:05:47.797Z,13.07
2018-07-27T02:08:16.330Z,12.23
2018-07-27T02:10:44.856Z,12.40
2018-07-27T02:13:13.503Z,12.50
2018-07-27T02:15:42.029Z,13.10
2018-07-27T02:18:10.575Z,13.27
2018-07-27T02:20:39.141Z,13.40
2018-07-27T02:23:07.641Z,12.40
2018-07-27T02:25:36.159Z,12.83
2018-07-27T02:28:04.698Z,13.67
2018-07-27T02:30:33.245Z,13.77
2018-07-27T02:33:02.714Z,13.70
2018-07-27T02:35:31.242Z,13.60
2018-07-27T02:37:59.742Z,13.50
2018-07-27T02:40:28.226Z,13.27
2018-07-27T02:42:56.763Z,12.97
2018-07-27T02:45:25.262Z,13.17
2018-07-27T02:47:53.777Z,13.27
2018-07-27T02:50:22.289Z,15.13
2018-07-27T02:52:50.802Z,14.13
2018-07-27T02:55:19.307Z,14.30
2018-07-27T02:57:47.818Z,13.80
2018-07-27T03:00:16.370Z,14.50
2018-07-27T03:02:44.878Z,14.57
2018-07-27T03:05:13.371Z,14.20
2018-07-27T03:07:41.866Z,13.93
2018-07-27T03:10:10.390Z,14.10
2018-07-27T03:12:38.885Z,13.60
2018-07-27T03:15:07.763Z,13.03
2018-07-27T03:17:36.264Z,13.47
2018-07-27T03:20:05.251Z,13.67
2018-07-27T03:22:33.842Z,12.80
2018-07-27T03:25:02.132Z,13.93
2018-07-27T03:27:30.628Z,13.80
2018-07-27T03:29:59.130Z,13.13
2018-07-27T03:32:28.006Z,13.70
2018-07-27T03:34:56.502Z,13.43
2018-07-27T03:37:25.090Z,13.53
2018-07-27T03:39:53.657Z,13.27
2018-07-27T03:42:22.154Z,13.80
2018-07-27T03:44:50.677Z,13.93
2018-07-27T03:47:19.182Z,13.87
2018-07-27T03:49:47.795Z,14.27
2018-07-27T03:52:16.306Z,14.10
2018-07-27T03:54:44.790Z,14.13
2018-07-27T03:57:13.302Z,13.40
2018-07-27T03:59:41.810Z,12.27
2018-07-27T04:02:10.645Z,12.00
2018-07-27T04:04:39.168Z,12.17
2018-07-27T04:07:07.653Z,11.50
2018-07-27T04:09:36.148Z,11.93
2018-07-27T04:12:04.334Z,10.93
2018-07-27T04:14:32.866Z,13.10
2018-07-27T04:17:01.403Z,15.43
2018-07-27T04:19:29.938Z,14.10
2018-07-27T04:21:58.443Z,13.30
2018-07-27T04:24:26.949Z,12.70
2018-07-27T04:26:55.493Z,13.40
2018-07-27T04:29:23.977Z,14.07
2018-07-27T04:31:52.512Z,12.10
2018-07-27T04:34:21.022Z,12.83
2018-07-27T04:36:49.526Z,13.30
2018-07-27T04:39:18.063Z,13.27
2018-07-27T04:41:46.558Z,12.87
2018-07-27T04:44:15.122Z,12.53
2018-07-27T04:46:43.689Z,12.07
2018-07-27T04:49:12.206Z,12.50
2018-07-27T04:51:40.759Z,12.17
2018-07-27T04:54:09.275Z,10.47
2018-07-27T04:56:37.820Z,10.63
2018-07-27T04:59:06.290Z,12.80
2018-07-27T05:01:34.759Z,11.60
2018-07-27T05:04:03.286Z,11.70
2018-07-27T05:06:31.871Z,12.47
2018-07-27T05:09:05.601Z,12.30
2018-07-27T05:11:34.135Z,12.13
2018-07-27T05:14:02.659Z,11.97
2018-07-27T05:16:31.168Z,13.23
2018-07-27T05:18:59.658Z,12.37
2018-07-27T05:21:28.144Z,13.23
2018-07-27T05:23:56.617Z,12.83
2018-07-27T05:26:25.182Z,12.03
2018-07-27T05:28:53.703Z,12.10
2018-07-27T05:31:22.183Z,13.10
2018-07-27T05:33:50.703Z,12.80
2018-07-27T05:36:19.199Z,13.47
2018-07-27T05:38:47.718Z,12.87
2018-07-27T05:41:16.250Z,13.00
2018-07-27T05:43:44.751Z,13.33
2018-07-27T05:46:13.382Z,12.10
2018-07-27T05:48:41.887Z,12.40
2018-07-27T05:51:10.518Z,13.03
2018-07-27T05:53:39.018Z,12.40
2018-07-27T05:56:07.638Z,11.93
2018-07-27T05:58:36.232Z,12.67
2018-07-27T06:01:04.778Z,12.53
2018-07-27T06:03:33.331Z,12.33
2018-07-27T06:06:02.045Z,12.53
2018-07-27T06:08:30.555Z,11.77
2018-07-27T06:10:59.114Z,11.50
2018-07-27T06:13:27.643Z,11.70
2018-07-27T06:15:56.183Z,10.77
2018-07-27T06:18:24.715Z,11.23
2018-07-27T06:20:53.570Z,11.77
2018-07-27T06:23:22.083Z,11.83
2018-07-27T06:25:50.618Z,12.50
2018-07-27T06:28:19.438Z,12.73
2018-07-27T06:30:48.141Z,11.93
2018-07-27T06:33:17.511Z,12.97
2018-07-27T06:35:46.027Z,12.20
2018-07-27T06:38:14.499Z,11.40
2018-07-27T06:40:43.035Z,12.17
2018-07-27T06:43:11.530Z,12.03
2018-07-27T06:45:40.074Z,12.03
2018-07-27T06:48:12.787Z,10.83
2018-07-27T06:50:41.418Z,12.60
2018-07-27T06:53:10.042Z,11.60
2018-07-27T06:55:38.646Z,11.63
2018-07-27T06:58:07.154Z,11.67
2018-07-27T07:00:35.738Z,12.37
2018-07-27T07:03:04.508Z,12.37
2018-07-27T07:05:33.029Z,11.60
2018-07-27T07:08:01.535Z,11.27
2018-07-27T07:10:30.099Z,12.13
2018-07-27T07:12:58.635Z,10.03
2018-07-27T07:15:27.160Z,12.13
2018-07-27T07:17:55.703Z,12.53
2018-07-27T07:20:24.362Z,11.70
2018-07-27T07:22:53.030Z,11.67
2018-07-27T07:25:21.624Z,9.90
2018-07-27T07:27:50.342Z,10.33
2018-07-27T07:30:18.958Z,14.10
2018-07-27T07:32:47.510Z,13.00
2018-07-27T07:35:16.019Z,11.70
2018-07-27T07:37:44.643Z,12.67
2018-07-27T07:40:13.151Z,13.53
2018-07-27T07:42:41.630Z,13.63
2018-07-27T07:45:10.243Z,14.10
2018-07-27T07:47:38.741Z,14.40
2018-07-27T07:50:07.530Z,14.60
2018-07-27T07:52:36.034Z,14.37
2018-07-27T07:55:04.575Z,13.73
2018-07-27T07:57:33.059Z,12.67
2018-07-27T08:00:01.617Z,13.10
2018-07-27T08:02:30.116Z,12.77
2018-07-27T08:04:58.634Z,12.67
2018-07-27T08:07:27.183Z,14.10
2018-07-27T08:09:55.682Z,14.27
2018-07-27T08:12:24.209Z,13.80
2018-07-27T08:14:52.726Z,12.40
2018-07-27T08:17:21.480Z,12.97
2018-07-27T08:19:49.931Z,13.47
2018-07-27T08:22:18.414Z,13.70
2018-07-27T08:24:47.151Z,12.60
2018-07-27T08:27:15.659Z,13.27
2018-07-27T08:29:45.223Z,12.90
2018-07-27T08:32:14.123Z,12.37
2018-07-27T08:34:42.849Z,13.77
2018-07-27T08:37:11.394Z,13.73
2018-07-27T08:39:41.831Z,12.60
2018-07-27T08:42:10.359Z,11.63
2018-07-27T08:44:40.209Z,12.43
2018-07-27T08:47:08.962Z,12.93
2018-07-27T08:49:38.242Z,12.70
2018-07-27T08:52:06.753Z,12.17
2018-07-27T08:54:35.342Z,12.57
2018-07-27T08:57:04.027Z,12.53
2018-07-27T08:59:32.579Z,13.20
2018-07-27T09:02:01.097Z,13.43
2018-07-27T09:04:29.661Z,13.60
2018-07-27T09:06:58.190Z,12.37
2018-07-27T09:09:26.726Z,13.30
2018-07-27T09:11:55.258Z,12.43
2018-07-27T09:14:23.788Z,13.17
2018-07-27T09:16:52.371Z,12.57
2018-07-27T09:19:20.902Z,11.87
2018-07-27T09:21:49.410Z,11.30
2018-07-27T09:24:17.936Z,11.53
2018-07-27T09:26:46.591Z,11.37
2018-07-27T09:29:15.086Z,11.47
2018-07-27T09:31:43.610Z,11.77
2018-07-27T09:34:12.205Z,11.30
2018-07-27T09:36:40.694Z,10.00
2018-07-27T09:39:10.709Z,10.73
2018-07-27T09:41:39.277Z,10.13
2018-07-27T09:44:08.142Z,10.20
2018-07-27T09:46:36.671Z,8.93
2018-07-27T09:49:05.296Z,8.80
2018-07-27T09:51:33.826Z,10.20
2018-07-27T09:54:02.351Z,9.07
2018-07-27T09:56:30.942Z,9.73
2018-07-27T09:58:59.426Z,8.40
2018-07-27T10:01:29.006Z,9.20
2018-07-27T10:03:57.522Z,8.20
2018-07-27T10:06:26.047Z,9.13
2018-07-27T10:08:54.594Z,9.37
2018-07-27T10:11:24.126Z,8.90
2018-07-27T10:13:52.638Z,8.40
2018-07-27T10:16:21.114Z,7.77
2018-07-27T10:18:49.651Z,8.73
2018-07-27T10:21:17.833Z,8.60
2018-07-27T10:23:46.330Z,7.80
2018-07-27T10:26:14.916Z,8.60
2018-07-27T10:28:43.405Z,8.07
2018-07-27T10:31:11.977Z,8.83
2018-07-27T10:33:40.452Z,8.47
2018-07-27T10:36:08.930Z,8.47
2018-07-27T10:38:37.571Z,7.87
2018-07-27T10:41:06.106Z,7.87
2018-07-27T10:43:34.606Z,8.53
2018-07-27T10:46:03.153Z,8.87
2018-07-27T10:48:31.633Z,8.03
2018-07-27T10:51:00.122Z,8.23
2018-07-27T10:53:28.642Z,3.50
2018-07-27T10:55:57.228Z,2.50
2018-07-27T10:58:25.762Z,2.27
2018-07-27T11:00:53.911Z,1.70
2018-07-27T11:03:22.412Z,1.53
2018-07-27T11:05:51.013Z,1.30
2018-07-27T11:08:19.508Z,1.40
2018-07-27T11:10:48.023Z,1.57
2018-07-27T11:13:16.518Z,1.60
2018-07-27T11:15:45.050Z,1.60
2018-07-27T11:18:13.543Z,1.90
2018-07-27T11:20:42.038Z,2.20
2018-07-27T11:23:10.575Z,2.80
2018-07-27T11:25:39.076Z,2.60
2018-07-27T11:28:07.610Z,3.10
2018-07-27T11:30:36.149Z,2.93
2018-07-27T11:33:04.754Z,2.90
2018-07-27T11:35:33.362Z,2.60
2018-07-27T11:38:01.907Z,2.63
2018-07-27T11:40:30.402Z,3.10
2018-07-27T11:42:58.942Z,3.60
2018-07-27T11:45:27.494Z,3.03
2018-07-27T11:47:55.970Z,5.00
2018-07-27T11:50:24.470Z,4.90
2018-07-27T11:52:53.002Z,4.70
2018-07-27T11:55:21.513Z,4.63
2018-07-27T11:57:49.977Z,5.17
2018-07-27T12:00:18.522Z,5.27
2018-07-27T12:02:47.053Z,5.00
2018-07-27T12:05:15.603Z,4.63
2018-07-27T12:07:44.108Z,5.03
2018-07-27T12:10:12.576Z,4.77
2018-07-27T12:12:41.111Z,4.83
2018-07-27T12:15:09.770Z,5.40
2018-07-27T12:17:38.135Z,5.07
2018-07-27T12:20:06.658Z,4.60
2018-07-27T12:22:35.152Z,5.07
2018-07-27T12:25:03.630Z,5.07
2018-07-27T12:27:32.174Z,4.90
2018-07-27T12:30:00.655Z,4.37
2018-07-27T12:32:29.178Z,3.60
2018-07-27T12:34:57.634Z,3.10
2018-07-27T12:37:26.182Z,3.30
2018-07-27T12:39:54.690Z,3.60
2018-07-27T12:42:23.194Z,3.43
2018-07-27T12:44:51.723Z,3.50
2018-07-27T12:47:20.246Z,4.07
2018-07-27T12:49:48.886Z,4.20
2018-07-27T12:52:17.574Z,4.00
2018-07-27T12:54:46.074Z,4.10
2018-07-27T12:57:14.586Z,4.30
2018-07-27T12:59:43.055Z,4.30
2018-07-27T13:02:11.594Z,4.20
2018-07-27T13:04:40.144Z,3.90
2018-07-27T13:07:08.654Z,4.33
2018-07-27T13:09:37.146Z,4.47
2018-07-27T13:12:05.674Z,5.03
2018-07-27T13:17:02.670Z,4.63
2018-07-27T13:19:31.221Z,5.10
2018-07-27T13:21:59.823Z,4.87
2018-07-27T13:26:56.813Z,4.83
2018-07-27T13:29:25.331Z,4.93
2018-07-27T13:31:55.100Z,4.60
2018-07-27T13:34:46.590Z,4.87
2018-07-27T13:37:15.637Z,5.07
2018-07-27T13:39:44.983Z,4.63
2018-07-27T13:42:14.739Z,5.10
2018-07-27T13:44:43.588Z,4.50
2018-07-27T13:47:12.602Z,4.67
2018-07-27T13:49:41.162Z,4.70
2018-07-27T13:52:09.690Z,4.27
2018-07-27T13:54:38.337Z,4.30
2018-07-27T13:57:06.866Z,4.30
2018-07-27T13:59:35.957Z,4.77
2018-07-27T14:02:04.906Z,5.13
2018-07-27T14:04:33.481Z,5.00
2018-07-27T14:07:03.198Z,4.67
2018-07-27T14:09:31.753Z,5.20
2018-07-27T14:12:00.323Z,5.33
2018-07-27T14:14:28.908Z,5.40
2018-07-27T14:16:57.540Z,5.47
2018-07-27T14:19:26.854Z,5.63
2018-07-27T14:21:55.399Z,5.60
2018-07-27T14:24:23.918Z,5.50
2018-07-27T14:26:52.945Z,5.50
2018-07-27T14:29:21.627Z,5.70
2018-07-27T14:31:50.089Z,4.80
2018-07-27T14:34:18.620Z,5.10
2018-07-27T14:36:47.255Z,5.27
2018-07-27T14:39:16.382Z,5.63
2018-07-27T14:41:45.123Z,5.40
2018-07-27T14:44:13.662Z,4.80
2018-07-27T14:46:42.162Z,4.87
2018-07-27T14:49:12.223Z,5.10
2018-07-27T14:51:41.378Z,5.20
2018-07-27T14:54:11.100Z,4.77
2018-07-27T14:56:40.231Z,5.47
2018-07-27T14:59:09.449Z,5.70
2018-07-27T15:01:38.399Z,5.10
2018-07-27T15:04:07.308Z,5.17
2018-07-27T15:06:35.873Z,4.93
2018-07-27T15:09:06.451Z,5.00
2018-07-27T15:11:35.059Z,3.90
2018-07-27T15:14:03.683Z,3.20
2018-07-27T15:16:32.219Z,3.00
2018-07-27T15:19:00.436Z,3.27
2018-07-27T15:21:29.062Z,3.00
2018-07-27T15:23:57.662Z,3.50
2018-07-27T15:26:25.972Z,3.40
2018-07-27T15:28:54.526Z,3.70
2018-07-27T15:31:23.091Z,3.83
2018-07-27T15:33:51.630Z,3.60
2018-07-27T15:36:20.263Z,3.63
2018-07-27T15:38:48.779Z,3.37
2018-07-27T15:41:17.294Z,3.93
2018-07-27T15:43:45.828Z,4.03
2018-07-27T15:46:14.439Z,3.63
2018-07-27T15:48:42.986Z,3.80
2018-07-27T15:51:11.542Z,3.63
2018-07-27T15:53:40.050Z,3.80
2018-07-27T15:56:08.543Z,4.20
2018-07-27T15:58:37.034Z,4.20
2018-07-27T16:01:05.542Z,4.97
2018-07-27T16:03:34.071Z,4.87
2018-07-27T16:06:02.545Z,4.80
2018-07-27T16:08:31.030Z,5.07
2018-07-27T16:10:59.602Z,5.73
2018-07-27T16:13:28.237Z,5.00
2018-07-27T16:15:56.822Z,5.37
2018-07-27T16:18:25.335Z,5.03
2018-07-27T16:20:53.818Z,4.50
2018-07-27T16:23:22.317Z,4.70
2018-07-27T16:25:50.875Z,5.10
2018-07-27T16:28:19.382Z,5.07
2018-07-27T16:30:47.938Z,5.47
2018-07-27T16:33:16.438Z,5.20
2018-07-27T16:35:44.898Z,5.27
2018-07-27T16:38:13.454Z,5.27
2018-07-27T16:40:42.058Z,5.20
2018-07-27T16:43:10.257Z,5.13
2018-07-27T16:45:38.806Z,5.17
2018-07-27T16:48:07.286Z,5.83
2018-07-27T16:50:35.763Z,5.10
2018-07-27T16:53:04.312Z,5.73
2018-07-27T16:55:32.891Z,6.10
2018-07-27T16:58:01.418Z,6.10
2018-07-27T17:00:29.909Z,6.17
2018-07-27T17:02:58.512Z,6.30
2018-07-27T17:05:27.021Z,5.70
2018-07-27T17:07:55.502Z,5.70
2018-07-27T17:10:24.038Z,6.10
2018-07-27T17:12:52.519Z,6.33
2018-07-27T17:15:21.038Z,5.90
2018-07-27T17:17:49.550Z,6.13
2018-07-27T17:20:18.073Z,6.23
2018-07-27T17:22:46.612Z,6.50
2018-07-27T17:25:15.182Z,6.00
2018-07-27T17:27:43.652Z,6.07
2018-07-27T17:30:12.178Z,6.40
2018-07-27T17:32:40.707Z,5.77
2018-07-27T17:35:09.259Z,5.73
2018-07-27T17:37:37.808Z,5.90
2018-07-27T17:40:07.312Z,6.20
2018-07-27T17:42:35.927Z,5.23
2018-07-27T17:45:04.766Z,5.43
2018-07-27T17:47:33.234Z,5.47
2018-07-27T17:50:01.835Z,5.63
2018-07-27T17:52:30.382Z,5.90
2018-07-27T17:54:59.003Z,5.17
2018-07-27T17:57:27.530Z,5.60
2018-07-27T17:59:56.067Z,6.00
2018-07-27T18:02:24.581Z,6.07
2018-07-27T18:04:53.157Z,5.93
2018-07-27T18:07:21.770Z,5.90
2018-07-27T18:09:50.315Z,6.40
2018-07-27T18:12:18.836Z,6.00
2018-07-27T18:14:47.355Z,6.40
2018-07-27T18:17:15.876Z,7.33
2018-07-27T18:19:44.368Z,6.87
2018-07-27T18:22:12.989Z,7.30
2018-07-27T18:24:41.162Z,6.50
2018-07-27T18:27:09.745Z,6.73
2018-07-27T18:29:38.300Z,6.50
2018-07-27T18:32:06.870Z,6.07
2018-07-27T18:34:35.395Z,5.10
2018-07-27T18:37:04.016Z,5.50
2018-07-27T18:39:32.752Z,5.70
2018-07-27T18:42:01.253Z,5.93
2018-07-27T18:44:29.515Z,6.93
2018-07-27T18:46:58.031Z,7.93
2018-07-27T18:49:26.529Z,8.53
2018-07-27T18:51:55.913Z,8.37
2018-07-27T18:54:24.435Z,9.13
2018-07-27T18:56:53.156Z,9.27
2018-07-27T18:59:21.701Z,8.80
2018-07-27T19:01:50.321Z,9.33
2018-07-27T19:04:18.861Z,8.57
2018-07-27T19:06:47.454Z,8.57
2018-07-27T19:09:15.960Z,9.23
2018-07-27T19:11:44.495Z,10.07
2018-07-27T19:14:12.685Z,9.40
2018-07-27T19:16:41.219Z,10.23
2018-07-27T19:19:09.746Z,12.10
2018-07-27T19:21:38.228Z,12.53
2018-07-27T19:24:06.853Z,11.13
2018-07-27T19:26:35.418Z,12.13
2018-07-27T19:29:03.987Z,11.50
2018-07-27T19:31:32.723Z,11.57
2018-07-27T19:34:01.305Z,11.60
2018-07-27T19:36:29.846Z,10.43
2018-07-27T19:38:58.365Z,9.77
2018-07-27T19:41:26.886Z,10.23
2018-07-27T19:43:55.476Z,10.10
2018-07-27T19:46:24.098Z,10.90
2018-07-27T19:48:52.689Z,11.17
2018-07-27T19:51:21.186Z,11.77
2018-07-27T19:53:49.670Z,11.83
2018-07-27T19:56:18.202Z,11.33
2018-07-27T19:58:46.670Z,11.67
2018-07-27T20:01:15.165Z,10.47
2018-07-27T20:03:43.707Z,9.83
2018-07-27T20:06:12.261Z,9.33
2018-07-27T20:08:40.840Z,8.60
2018-07-27T20:11:09.441Z,8.23
2018-07-27T20:13:38.133Z,8.80
2018-07-27T20:16:06.644Z,8.70
2018-07-27T20:18:35.238Z,7.73
2018-07-27T20:21:03.806Z,8.80
2018-07-27T20:23:32.470Z,8.33
2018-07-27T20:26:01.062Z,8.97
2018-07-27T20:28:29.589Z,8.77
2018-07-27T20:30:58.094Z,8.33
2018-07-27T20:33:26.622Z,9.00
2018-07-27T20:35:55.200Z,8.40
2018-07-27T20:38:23.872Z,9.07
2018-07-27T20:40:52.435Z,9.60
2018-07-27T20:43:20.978Z,9.10
2018-07-27T20:45:49.494Z,8.90
2018-07-27T20:48:18.104Z,8.47
2018-07-27T20:50:46.626Z,8.70
2018-07-27T20:53:16.068Z,8.30
2018-07-27T20:55:44.588Z,8.53
2018-07-27T20:58:13.142Z,8.47
2018-07-27T21:00:41.686Z,9.10
2018-07-27T21:03:10.162Z,7.77
2018-07-27T21:05:38.691Z,7.80
2018-07-27T21:08:07.254Z,9.37
2018-07-27T21:10:35.828Z,10.30
2018-07-27T21:13:04.366Z,10.60
2018-07-27T21:15:32.957Z,9.33
2018-07-27T21:18:01.453Z,8.87
2018-07-27T21:20:29.990Z,8.67
2018-07-27T21:22:58.550Z,8.90
2018-07-27T21:25:27.035Z,8.97
2018-07-27T21:27:55.574Z,9.37
2018-07-27T21:30:24.254Z,9.53
2018-07-27T21:32:52.811Z,8.47
2018-07-27T21:35:21.420Z,9.10
2018-07-27T21:37:50.055Z,9.53
2018-07-27T21:40:18.521Z,9.80
2018-07-27T21:42:47.022Z,9.33
2018-07-27T21:45:15.562Z,8.97
2018-07-27T21:47:44.062Z,9.00
2018-07-27T21:50:12.603Z,9.33
2018-07-27T21:52:41.144Z,9.33
2018-07-27T21:55:09.726Z,9.43
2018-07-27T21:57:38.543Z,8.23
2018-07-27T22:00:09.291Z,9.30
2018-07-27T22:02:37.826Z,8.87
2018-07-27T22:05:06.499Z,8.93
2018-07-27T22:07:36.419Z,9.00
2018-07-27T22:10:05.494Z,8.57
2018-07-27T22:12:33.981Z,8.77
2018-07-27T22:15:02.615Z,9.10
2018-07-27T22:17:31.197Z,9.07
2018-07-27T22:19:59.709Z,10.37
2018-07-27T22:22:28.229Z,10.20
2018-07-27T22:24:56.469Z,9.77
2018-07-27T22:27:24.984Z,10.07
2018-07-27T22:29:53.486Z,9.27
2018-07-27T22:32:22.063Z,9.57
2018-07-27T22:34:50.518Z,9.10
2018-07-27T22:37:19.158Z,9.00
2018-07-27T22:39:47.691Z,9.00
2018-07-27T22:42:16.199Z,8.43
2018-07-27T22:44:44.822Z,8.60
2018-07-27T22:47:13.288Z,8.87
2018-07-27T22:49:41.859Z,8.50
2018-07-27T22:52:10.437Z,8.43
2018-07-27T22:54:38.963Z,8.67
2018-07-27T22:57:07.509Z,8.23
2018-07-27T22:59:36.111Z,8.33
2018-07-27T23:02:04.625Z,8.77
2018-07-27T23:04:33.122Z,8.70
2018-07-27T23:07:01.606Z,10.03
2018-07-27T23:09:30.106Z,10.97
2018-07-27T23:11:58.622Z,10.67
2018-07-27T23:14:27.118Z,10.67
2018-07-27T23:16:55.623Z,10.47
2018-07-27T23:19:24.139Z,9.67
2018-07-27T23:21:52.695Z,9.47
2018-07-27T23:24:21.223Z,8.50
2018-07-27T23:26:49.907Z,8.90
2018-07-27T23:29:19.074Z,8.67
2018-07-27T23:31:47.565Z,9.83
2018-07-27T23:34:16.134Z,9.27
2018-07-27T23:36:44.681Z,9.33
2018-07-27T23:39:14.181Z,9.60
2018-07-27T23:41:43.249Z,8.60
2018-07-27T23:44:11.806Z,9.40
2018-07-27T23:46:40.270Z,8.70
2018-07-27T23:49:08.830Z,10.37
2018-07-27T23:51:37.366Z,12.73
2018-07-27T23:54:05.858Z,12.03
2018-07-27T23:56:34.446Z,12.90
2018-07-27T23:59:02.977Z,11.83
